sensor_id;sensor_type;location;lat;lon;timestamp;temperature;humidity
35559;DHT22;21661;50.794;-1.066;2024-03-02T00:00:16;6.60;99.90
35559;DHT22;21661;50.794;-1.066;2024-03-02T00:02:45;6.50;99.90
35559;DHT22;21661;50.794;-1.066;2024-03-02T00:05:17;6.50;99.90
35559;DHT22;21661;50.794;-1.066;2024-03-02T00:10:22;6.30;99.90
35559;DHT22;21661;50.794;-1.066;2024-03-02T00:12:51;6.30;99.90
35559;DHT22;21661;50.794;-1.066;2024-03-02T00:18:11;6.30;99.90
35559;DHT22;21661;50.794;-1.066;2024-03-02T00:20:38;6.30;99.90
35559;DHT22;21661;50.794;-1.066;2024-03-02T00:23:06;6.30;99.90
35559;DHT22;21661;50.794;-1.066;2024-03-02T00:25:42;6.40;99.90
35559;DHT22;21661;50.794;-1.066;2024-03-02T00:28:20;6.40;99.90
35559;DHT22;21661;50.794;-1.066;2024-03-02T00:30:59;6.40;99.90
35559;DHT22;21661;50.794;-1.066;2024-03-02T00:33:32;6.40;99.90
35559;DHT22;21661;50.794;-1.066;2024-03-02T00:35:58;6.40;99.90
35559;DHT22;21661;50.794;-1.066;2024-03-02T00:38:25;6.40;99.90
35559;DHT22;21661;50.794;-1.066;2024-03-02T00:40:51;6.40;99.90
35559;DHT22;21661;50.794;-1.066;2024-03-02T00:46:21;6.20;99.90
35559;DHT22;21661;50.794;-1.066;2024-03-02T00:48:56;6.10;99.90
35559;DHT22;21661;50.794;-1.066;2024-03-02T00:51:29;6.10;99.90
35559;DHT22;21661;50.794;-1.066;2024-03-02T00:53:57;6.10;99.90
35559;DHT22;21661;50.794;-1.066;2024-03-02T00:56:24;6.10;99.90
35559;DHT22;21661;50.794;-1.066;2024-03-02T00:58:50;6.00;99.90
35559;DHT22;21661;50.794;-1.066;2024-03-02T01:01:16;6.10;99.90
35559;DHT22;21661;50.794;-1.066;2024-03-02T01:03:42;6.00;99.90
35559;DHT22;21661;50.794;-1.066;2024-03-02T01:06:08;5.90;99.90
35559;DHT22;21661;50.794;-1.066;2024-03-02T01:08:37;5.90;99.90
35559;DHT22;21661;50.794;-1.066;2024-03-02T01:11:03;5.90;99.90
35559;DHT22;21661;50.794;-1.066;2024-03-02T01:13:29;5.90;99.90
35559;DHT22;21661;50.794;-1.066;2024-03-02T01:15:55;5.90;99.90
35559;DHT22;21661;50.794;-1.066;2024-03-02T01:18:21;5.90;99.90
35559;DHT22;21661;50.794;-1.066;2024-03-02T01:20:47;6.00;99.90
35559;DHT22;21661;50.794;-1.066;2024-03-02T01:23:13;6.00;99.90
35559;DHT22;21661;50.794;-1.066;2024-03-02T01:25:39;6.00;99.90
35559;DHT22;21661;50.794;-1.066;2024-03-02T01:28:05;6.00;99.90
35559;DHT22;21661;50.794;-1.066;2024-03-02T01:30:31;6.00;99.90
35559;DHT22;21661;50.794;-1.066;2024-03-02T01:32:56;6.00;99.90
35559;DHT22;21661;50.794;-1.066;2024-03-02T01:35:24;6.10;99.90
35559;DHT22;21661;50.794;-1.066;2024-03-02T01:37:50;6.10;99.90
35559;DHT22;21661;50.794;-1.066;2024-03-02T01:40:16;6.20;99.90
35559;DHT22;21661;50.794;-1.066;2024-03-02T01:42:43;6.30;99.90
35559;DHT22;21661;50.794;-1.066;2024-03-02T01:45:09;6.40;99.90
35559;DHT22;21661;50.794;-1.066;2024-03-02T01:47:35;6.60;99.90
35559;DHT22;21661;50.794;-1.066;2024-03-02T01:50:01;6.70;99.90
35559;DHT22;21661;50.794;-1.066;2024-03-02T01:52:27;6.90;99.90
35559;DHT22;21661;50.794;-1.066;2024-03-02T01:54:53;7.00;99.90
35559;DHT22;21661;50.794;-1.066;2024-03-02T01:57:19;7.00;99.90
35559;DHT22;21661;50.794;-1.066;2024-03-02T01:59:45;7.10;99.90
35559;DHT22;21661;50.794;-1.066;2024-03-02T02:02:13;7.20;99.90
35559;DHT22;21661;50.794;-1.066;2024-03-02T02:04:39;7.20;99.90
35559;DHT22;21661;50.794;-1.066;2024-03-02T02:07:05;7.20;99.90
35559;DHT22;21661;50.794;-1.066;2024-03-02T02:09:32;7.20;99.90
35559;DHT22;21661;50.794;-1.066;2024-03-02T02:11:58;7.30;99.90
35559;DHT22;21661;50.794;-1.066;2024-03-02T02:14:24;7.30;99.90
35559;DHT22;21661;50.794;-1.066;2024-03-02T02:16:49;7.30;99.90
35559;DHT22;21661;50.794;-1.066;2024-03-02T02:19:15;7.20;99.90
35559;DHT22;21661;50.794;-1.066;2024-03-02T02:21:44;7.20;99.90
35559;DHT22;21661;50.794;-1.066;2024-03-02T02:24:09;7.20;99.90
35559;DHT22;21661;50.794;-1.066;2024-03-02T02:26:35;7.20;99.90
35559;DHT22;21661;50.794;-1.066;2024-03-02T02:29:01;7.20;99.90
35559;DHT22;21661;50.794;-1.066;2024-03-02T02:31:36;7.20;99.90
35559;DHT22;21661;50.794;-1.066;2024-03-02T02:34:01;7.20;99.90
35559;DHT22;21661;50.794;-1.066;2024-03-02T02:36:27;7.20;99.90
35559;DHT22;21661;50.794;-1.066;2024-03-02T02:38:52;7.20;99.90
35559;DHT22;21661;50.794;-1.066;2024-03-02T02:41:18;7.30;99.90
35559;DHT22;21661;50.794;-1.066;2024-03-02T02:43:44;7.30;99.90
35559;DHT22;21661;50.794;-1.066;2024-03-02T02:46:09;7.30;99.90
35559;DHT22;21661;50.794;-1.066;2024-03-02T02:48:35;7.30;99.90
35559;DHT22;21661;50.794;-1.066;2024-03-02T02:51:01;7.40;99.90
35559;DHT22;21661;50.794;-1.066;2024-03-02T02:53:27;7.30;99.90
35559;DHT22;21661;50.794;-1.066;2024-03-02T02:55:53;7.30;99.90
35559;DHT22;21661;50.794;-1.066;2024-03-02T02:58:18;7.30;99.90
35559;DHT22;21661;50.794;-1.066;2024-03-02T03:00:44;7.30;99.90
35559;DHT22;21661;50.794;-1.066;2024-03-02T03:03:09;7.30;99.90
35559;DHT22;21661;50.794;-1.066;2024-03-02T03:05:35;7.20;99.90
35559;DHT22;21661;50.794;-1.066;2024-03-02T03:08:01;7.20;99.90
35559;DHT22;21661;50.794;-1.066;2024-03-02T03:10:26;7.20;99.90
35559;DHT22;21661;50.794;-1.066;2024-03-02T03:12:53;7.20;99.90
35559;DHT22;21661;50.794;-1.066;2024-03-02T03:15:21;7.20;99.90
35559;DHT22;21661;50.794;-1.066;2024-03-02T03:17:47;7.20;99.90
35559;DHT22;21661;50.794;-1.066;2024-03-02T03:20:13;7.20;99.90
35559;DHT22;21661;50.794;-1.066;2024-03-02T03:22:40;7.20;99.90
35559;DHT22;21661;50.794;-1.066;2024-03-02T03:25:06;7.20;99.90
35559;DHT22;21661;50.794;-1.066;2024-03-02T03:27:33;7.20;99.90
35559;DHT22;21661;50.794;-1.066;2024-03-02T03:29:59;7.20;99.90
35559;DHT22;21661;50.794;-1.066;2024-03-02T03:32:24;7.20;99.90
35559;DHT22;21661;50.794;-1.066;2024-03-02T03:34:50;7.20;99.90
35559;DHT22;21661;50.794;-1.066;2024-03-02T03:37:16;7.20;99.90
35559;DHT22;21661;50.794;-1.066;2024-03-02T03:39:42;7.30;99.90
35559;DHT22;21661;50.794;-1.066;2024-03-02T03:42:07;7.30;99.90
35559;DHT22;21661;50.794;-1.066;2024-03-02T03:44:33;7.30;99.90
35559;DHT22;21661;50.794;-1.066;2024-03-02T03:46:59;7.30;99.90
35559;DHT22;21661;50.794;-1.066;2024-03-02T03:49:27;7.40;99.90
35559;DHT22;21661;50.794;-1.066;2024-03-02T03:51:53;7.40;99.90
35559;DHT22;21661;50.794;-1.066;2024-03-02T03:54:18;7.50;99.90
35559;DHT22;21661;50.794;-1.066;2024-03-02T03:56:44;7.50;99.90
35559;DHT22;21661;50.794;-1.066;2024-03-02T03:59:09;7.50;99.90
35559;DHT22;21661;50.794;-1.066;2024-03-02T04:01:35;7.50;99.90
35559;DHT22;21661;50.794;-1.066;2024-03-02T04:04:01;7.50;99.90
35559;DHT22;21661;50.794;-1.066;2024-03-02T04:06:29;7.60;99.90
35559;DHT22;21661;50.794;-1.066;2024-03-02T04:08:55;7.50;99.90
35559;DHT22;21661;50.794;-1.066;2024-03-02T04:11:21;7.60;99.90
35559;DHT22;21661;50.794;-1.066;2024-03-02T04:13:46;7.60;99.90
35559;DHT22;21661;50.794;-1.066;2024-03-02T04:16:12;7.60;99.90
35559;DHT22;21661;50.794;-1.066;2024-03-02T04:18:38;7.60;99.90
35559;DHT22;21661;50.794;-1.066;2024-03-02T04:21:05;7.70;99.90
35559;DHT22;21661;50.794;-1.066;2024-03-02T04:23:30;7.60;99.90
35559;DHT22;21661;50.794;-1.066;2024-03-02T04:25:56;7.60;99.90
35559;DHT22;21661;50.794;-1.066;2024-03-02T04:28:21;7.60;99.90
35559;DHT22;21661;50.794;-1.066;2024-03-02T04:30:47;7.50;99.90
35559;DHT22;21661;50.794;-1.066;2024-03-02T04:33:13;7.50;99.90
35559;DHT22;21661;50.794;-1.066;2024-03-02T04:35:39;7.40;99.90
35559;DHT22;21661;50.794;-1.066;2024-03-02T04:38:04;7.40;99.90
35559;DHT22;21661;50.794;-1.066;2024-03-02T04:40:30;7.40;99.90
35559;DHT22;21661;50.794;-1.066;2024-03-02T04:42:56;7.30;99.90
35559;DHT22;21661;50.794;-1.066;2024-03-02T04:45:21;7.30;99.90
35559;DHT22;21661;50.794;-1.066;2024-03-02T04:47:47;7.40;99.90
35559;DHT22;21661;50.794;-1.066;2024-03-02T04:50:12;7.40;99.90
35559;DHT22;21661;50.794;-1.066;2024-03-02T04:52:38;7.30;99.90
35559;DHT22;21661;50.794;-1.066;2024-03-02T04:55:04;7.20;99.90
35559;DHT22;21661;50.794;-1.066;2024-03-02T04:57:56;7.10;99.90
35559;DHT22;21661;50.794;-1.066;2024-03-02T05:00:22;7.10;99.90
35559;DHT22;21661;50.794;-1.066;2024-03-02T05:02:47;7.10;99.90
35559;DHT22;21661;50.794;-1.066;2024-03-02T05:05:13;7.10;99.90
35559;DHT22;21661;50.794;-1.066;2024-03-02T05:07:41;7.00;99.90
35559;DHT22;21661;50.794;-1.066;2024-03-02T05:10:08;7.00;99.90
35559;DHT22;21661;50.794;-1.066;2024-03-02T05:12:34;7.00;99.90
35559;DHT22;21661;50.794;-1.066;2024-03-02T05:15:20;6.90;99.90
35559;DHT22;21661;50.794;-1.066;2024-03-02T05:17:47;6.90;99.90
35559;DHT22;21661;50.794;-1.066;2024-03-02T05:20:12;7.00;99.90
35559;DHT22;21661;50.794;-1.066;2024-03-02T05:22:38;7.00;99.90
35559;DHT22;21661;50.794;-1.066;2024-03-02T05:25:05;7.00;99.90
35559;DHT22;21661;50.794;-1.066;2024-03-02T05:27:31;7.00;99.90
35559;DHT22;21661;50.794;-1.066;2024-03-02T05:30:00;7.10;99.90
35559;DHT22;21661;50.794;-1.066;2024-03-02T05:32:26;7.10;99.90
35559;DHT22;21661;50.794;-1.066;2024-03-02T05:34:51;7.10;99.90
35559;DHT22;21661;50.794;-1.066;2024-03-02T05:37:17;7.00;99.90
35559;DHT22;21661;50.794;-1.066;2024-03-02T05:39:43;6.80;99.90
35559;DHT22;21661;50.794;-1.066;2024-03-02T05:42:09;6.70;99.90
35559;DHT22;21661;50.794;-1.066;2024-03-02T05:44:36;6.60;99.90
35559;DHT22;21661;50.794;-1.066;2024-03-02T05:47:01;6.60;99.90
35559;DHT22;21661;50.794;-1.066;2024-03-02T05:49:27;6.70;99.90
35559;DHT22;21661;50.794;-1.066;2024-03-02T05:51:52;6.60;99.90
35559;DHT22;21661;50.794;-1.066;2024-03-02T05:54:18;6.80;99.90
35559;DHT22;21661;50.794;-1.066;2024-03-02T05:56:44;6.90;99.90
35559;DHT22;21661;50.794;-1.066;2024-03-02T05:59:09;6.80;99.90
35559;DHT22;21661;50.794;-1.066;2024-03-02T06:01:45;6.70;99.90
35559;DHT22;21661;50.794;-1.066;2024-03-02T06:04:17;6.70;99.90
35559;DHT22;21661;50.794;-1.066;2024-03-02T06:06:43;6.60;99.90
35559;DHT22;21661;50.794;-1.066;2024-03-02T06:09:09;6.60;99.90
35559;DHT22;21661;50.794;-1.066;2024-03-02T06:11:38;6.60;99.90
35559;DHT22;21661;50.794;-1.066;2024-03-02T06:14:05;6.50;99.90
35559;DHT22;21661;50.794;-1.066;2024-03-02T06:16:31;6.60;99.90
35559;DHT22;21661;50.794;-1.066;2024-03-02T06:18:57;6.50;99.90
35559;DHT22;21661;50.794;-1.066;2024-03-02T06:21:26;6.50;99.90
35559;DHT22;21661;50.794;-1.066;2024-03-02T06:23:53;6.50;99.90
35559;DHT22;21661;50.794;-1.066;2024-03-02T06:26:18;6.50;99.90
35559;DHT22;21661;50.794;-1.066;2024-03-02T06:28:45;6.50;99.90
35559;DHT22;21661;50.794;-1.066;2024-03-02T06:31:11;6.50;99.90
35559;DHT22;21661;50.794;-1.066;2024-03-02T06:33:36;6.50;99.90
35559;DHT22;21661;50.794;-1.066;2024-03-02T06:36:02;6.40;99.90
35559;DHT22;21661;50.794;-1.066;2024-03-02T06:38:28;6.40;99.90
35559;DHT22;21661;50.794;-1.066;2024-03-02T06:40:54;6.40;99.90
35559;DHT22;21661;50.794;-1.066;2024-03-02T06:43:23;6.40;99.90
35559;DHT22;21661;50.794;-1.066;2024-03-02T06:45:52;6.30;99.90
35559;DHT22;21661;50.794;-1.066;2024-03-02T06:48:18;6.30;99.90
35559;DHT22;21661;50.794;-1.066;2024-03-02T06:50:49;6.30;99.90
35559;DHT22;21661;50.794;-1.066;2024-03-02T06:53:15;6.30;99.90
35559;DHT22;21661;50.794;-1.066;2024-03-02T06:55:45;6.30;99.90
35559;DHT22;21661;50.794;-1.066;2024-03-02T06:58:12;6.30;99.90
35559;DHT22;21661;50.794;-1.066;2024-03-02T07:00:37;6.30;99.90
35559;DHT22;21661;50.794;-1.066;2024-03-02T07:03:04;6.40;99.90
35559;DHT22;21661;50.794;-1.066;2024-03-02T07:05:29;6.40;99.90
35559;DHT22;21661;50.794;-1.066;2024-03-02T07:07:55;6.40;99.90
35559;DHT22;21661;50.794;-1.066;2024-03-02T07:10:21;6.40;99.90
35559;DHT22;21661;50.794;-1.066;2024-03-02T07:12:46;6.40;99.90
35559;DHT22;21661;50.794;-1.066;2024-03-02T07:15:12;6.40;99.90
35559;DHT22;21661;50.794;-1.066;2024-03-02T07:17:55;6.40;99.90
35559;DHT22;21661;50.794;-1.066;2024-03-02T07:20:20;6.30;99.90
35559;DHT22;21661;50.794;-1.066;2024-03-02T07:22:46;6.20;99.90
35559;DHT22;21661;50.794;-1.066;2024-03-02T07:25:12;6.10;99.90
35559;DHT22;21661;50.794;-1.066;2024-03-02T07:27:38;6.10;99.90
35559;DHT22;21661;50.794;-1.066;2024-03-02T07:30:05;6.10;99.90
35559;DHT22;21661;50.794;-1.066;2024-03-02T07:32:31;6.00;99.90
35559;DHT22;21661;50.794;-1.066;2024-03-02T07:34:56;6.10;99.90
35559;DHT22;21661;50.794;-1.066;2024-03-02T07:37:23;6.10;99.90
35559;DHT22;21661;50.794;-1.066;2024-03-02T07:39:49;6.10;99.90
35559;DHT22;21661;50.794;-1.066;2024-03-02T07:42:15;6.10;99.90
35559;DHT22;21661;50.794;-1.066;2024-03-02T07:44:41;6.10;99.90
35559;DHT22;21661;50.794;-1.066;2024-03-02T07:47:07;6.20;99.90
35559;DHT22;21661;50.794;-1.066;2024-03-02T07:49:33;6.20;99.90
35559;DHT22;21661;50.794;-1.066;2024-03-02T07:51:58;6.20;99.90
35559;DHT22;21661;50.794;-1.066;2024-03-02T07:54:24;6.20;99.90
35559;DHT22;21661;50.794;-1.066;2024-03-02T07:56:50;6.20;99.90
35559;DHT22;21661;50.794;-1.066;2024-03-02T07:59:16;6.30;99.90
35559;DHT22;21661;50.794;-1.066;2024-03-02T08:01:41;6.30;99.90
35559;DHT22;21661;50.794;-1.066;2024-03-02T08:04:07;6.30;99.90
35559;DHT22;21661;50.794;-1.066;2024-03-02T08:06:33;6.40;99.90
35559;DHT22;21661;50.794;-1.066;2024-03-02T08:09:00;6.40;99.90
35559;DHT22;21661;50.794;-1.066;2024-03-02T08:11:26;6.40;99.90
35559;DHT22;21661;50.794;-1.066;2024-03-02T08:13:56;6.40;99.90
35559;DHT22;21661;50.794;-1.066;2024-03-02T08:16:23;6.40;99.90
35559;DHT22;21661;50.794;-1.066;2024-03-02T08:18:49;6.50;99.90
35559;DHT22;21661;50.794;-1.066;2024-03-02T08:21:15;6.50;99.90
35559;DHT22;21661;50.794;-1.066;2024-03-02T08:23:42;6.50;99.90
35559;DHT22;21661;50.794;-1.066;2024-03-02T08:26:09;6.50;99.90
35559;DHT22;21661;50.794;-1.066;2024-03-02T08:28:35;6.60;99.90
35559;DHT22;21661;50.794;-1.066;2024-03-02T08:31:03;6.60;99.90
35559;DHT22;21661;50.794;-1.066;2024-03-02T08:33:28;6.70;99.90
35559;DHT22;21661;50.794;-1.066;2024-03-02T08:35:54;6.70;99.90
35559;DHT22;21661;50.794;-1.066;2024-03-02T08:38:20;6.70;99.90
35559;DHT22;21661;50.794;-1.066;2024-03-02T08:40:45;6.80;99.90
35559;DHT22;21661;50.794;-1.066;2024-03-02T08:43:11;6.80;99.90
35559;DHT22;21661;50.794;-1.066;2024-03-02T08:45:38;6.90;99.90
35559;DHT22;21661;50.794;-1.066;2024-03-02T08:48:07;6.90;99.90
35559;DHT22;21661;50.794;-1.066;2024-03-02T08:50:34;6.90;99.90
35559;DHT22;21661;50.794;-1.066;2024-03-02T08:53:00;7.00;99.90
35559;DHT22;21661;50.794;-1.066;2024-03-02T08:55:25;7.10;99.90
35559;DHT22;21661;50.794;-1.066;2024-03-02T08:57:51;7.10;99.90
35559;DHT22;21661;50.794;-1.066;2024-03-02T09:00:17;7.10;99.90
35559;DHT22;21661;50.794;-1.066;2024-03-02T09:02:44;7.10;99.90
35559;DHT22;21661;50.794;-1.066;2024-03-02T09:05:10;7.10;99.90
35559;DHT22;21661;50.794;-1.066;2024-03-02T09:07:36;7.10;99.90
35559;DHT22;21661;50.794;-1.066;2024-03-02T09:10:03;7.00;99.90
35559;DHT22;21661;50.794;-1.066;2024-03-02T09:12:28;7.00;99.90
35559;DHT22;21661;50.794;-1.066;2024-03-02T09:14:54;6.90;99.90
35559;DHT22;21661;50.794;-1.066;2024-03-02T09:17:20;7.00;99.90
35559;DHT22;21661;50.794;-1.066;2024-03-02T09:19:46;6.90;99.90
35559;DHT22;21661;50.794;-1.066;2024-03-02T09:22:12;6.80;99.90
35559;DHT22;21661;50.794;-1.066;2024-03-02T09:24:38;6.70;99.90
35559;DHT22;21661;50.794;-1.066;2024-03-02T09:27:04;6.70;99.90
35559;DHT22;21661;50.794;-1.066;2024-03-02T09:29:31;6.70;99.90
35559;DHT22;21661;50.794;-1.066;2024-03-02T09:31:56;6.70;99.90
35559;DHT22;21661;50.794;-1.066;2024-03-02T09:34:22;6.80;99.90
35559;DHT22;21661;50.794;-1.066;2024-03-02T09:36:48;6.80;99.90
35559;DHT22;21661;50.794;-1.066;2024-03-02T09:39:14;6.90;99.90
35559;DHT22;21661;50.794;-1.066;2024-03-02T09:41:40;6.90;99.90
35559;DHT22;21661;50.794;-1.066;2024-03-02T09:44:06;7.00;99.90
35559;DHT22;21661;50.794;-1.066;2024-03-02T09:46:32;7.10;99.90
35559;DHT22;21661;50.794;-1.066;2024-03-02T09:48:58;7.10;99.90
35559;DHT22;21661;50.794;-1.066;2024-03-02T09:51:24;7.00;99.90
35559;DHT22;21661;50.794;-1.066;2024-03-02T09:53:50;7.10;99.90
35559;DHT22;21661;50.794;-1.066;2024-03-02T09:56:16;7.00;99.90
35559;DHT22;21661;50.794;-1.066;2024-03-02T09:58:42;7.00;99.90
35559;DHT22;21661;50.794;-1.066;2024-03-02T10:01:09;7.00;99.90
35559;DHT22;21661;50.794;-1.066;2024-03-02T10:03:36;7.10;99.90
35559;DHT22;21661;50.794;-1.066;2024-03-02T10:06:22;7.00;99.90
35559;DHT22;21661;50.794;-1.066;2024-03-02T10:08:48;7.10;99.90
35559;DHT22;21661;50.794;-1.066;2024-03-02T10:14:09;7.20;99.90
35559;DHT22;21661;50.794;-1.066;2024-03-02T10:16:41;7.30;99.90
35559;DHT22;21661;50.794;-1.066;2024-03-02T10:19:17;7.30;99.90
35559;DHT22;21661;50.794;-1.066;2024-03-02T10:21:44;7.30;99.90
35559;DHT22;21661;50.794;-1.066;2024-03-02T10:24:12;7.30;99.90
35559;DHT22;21661;50.794;-1.066;2024-03-02T10:26:38;7.40;99.90
35559;DHT22;21661;50.794;-1.066;2024-03-02T10:29:04;7.40;99.90
35559;DHT22;21661;50.794;-1.066;2024-03-02T10:31:30;7.40;99.90
35559;DHT22;21661;50.794;-1.066;2024-03-02T10:33:57;7.30;99.90
35559;DHT22;21661;50.794;-1.066;2024-03-02T10:36:23;7.30;99.90
35559;DHT22;21661;50.794;-1.066;2024-03-02T10:38:49;7.40;99.90
35559;DHT22;21661;50.794;-1.066;2024-03-02T10:41:26;7.50;99.90
35559;DHT22;21661;50.794;-1.066;2024-03-02T10:43:52;7.50;99.90
35559;DHT22;21661;50.794;-1.066;2024-03-02T10:46:28;7.60;99.90
35559;DHT22;21661;50.794;-1.066;2024-03-02T10:48:55;7.70;99.90
35559;DHT22;21661;50.794;-1.066;2024-03-02T10:51:24;7.80;99.90
35559;DHT22;21661;50.794;-1.066;2024-03-02T10:53:50;7.80;99.90
35559;DHT22;21661;50.794;-1.066;2024-03-02T10:56:25;7.80;99.90
35559;DHT22;21661;50.794;-1.066;2024-03-02T10:59:32;7.90;99.90
35559;DHT22;21661;50.794;-1.066;2024-03-02T11:01:48;7.90;99.90
35559;DHT22;21661;50.794;-1.066;2024-03-02T11:04:16;7.90;99.90
35559;DHT22;21661;50.794;-1.066;2024-03-02T11:06:50;7.90;99.90
35559;DHT22;21661;50.794;-1.066;2024-03-02T11:09:19;7.90;99.90
35559;DHT22;21661;50.794;-1.066;2024-03-02T11:14:31;7.80;99.90
35559;DHT22;21661;50.794;-1.066;2024-03-02T11:16:59;7.70;99.90
35559;DHT22;21661;50.794;-1.066;2024-03-02T11:19:25;7.60;99.90
35559;DHT22;21661;50.794;-1.066;2024-03-02T11:21:53;7.60;99.90
35559;DHT22;21661;50.794;-1.066;2024-03-02T11:26:53;7.60;99.90
35559;DHT22;21661;50.794;-1.066;2024-03-02T11:32:13;7.60;99.90
35559;DHT22;21661;50.794;-1.066;2024-03-02T11:34:43;7.60;99.90
35559;DHT22;21661;50.794;-1.066;2024-03-02T11:37:11;7.50;99.90
35559;DHT22;21661;50.794;-1.066;2024-03-02T11:39:38;7.50;99.90
35559;DHT22;21661;50.794;-1.066;2024-03-02T11:42:07;7.50;99.90
35559;DHT22;21661;50.794;-1.066;2024-03-02T11:44:37;7.70;99.90
35559;DHT22;21661;50.794;-1.066;2024-03-02T11:47:06;7.60;99.90
35559;DHT22;21661;50.794;-1.066;2024-03-02T11:49:48;7.70;99.90
35559;DHT22;21661;50.794;-1.066;2024-03-02T11:52:15;7.90;99.90
35559;DHT22;21661;50.794;-1.066;2024-03-02T11:54:46;8.10;99.90
35559;DHT22;21661;50.794;-1.066;2024-03-02T11:57:18;8.10;99.90
35559;DHT22;21661;50.794;-1.066;2024-03-02T11:59:44;8.20;99.90
35559;DHT22;21661;50.794;-1.066;2024-03-02T12:02:18;8.30;99.90
35559;DHT22;21661;50.794;-1.066;2024-03-02T12:04:45;8.30;99.90
35559;DHT22;21661;50.794;-1.066;2024-03-02T12:07:12;8.40;99.90
35559;DHT22;21661;50.794;-1.066;2024-03-02T12:09:38;8.50;99.90
35559;DHT22;21661;50.794;-1.066;2024-03-02T12:12:05;8.60;99.90
35559;DHT22;21661;50.794;-1.066;2024-03-02T12:14:32;8.60;99.90
35559;DHT22;21661;50.794;-1.066;2024-03-02T12:16:58;8.60;99.90
35559;DHT22;21661;50.794;-1.066;2024-03-02T12:19:27;8.60;99.90
35559;DHT22;21661;50.794;-1.066;2024-03-02T12:21:59;8.60;99.90
35559;DHT22;21661;50.794;-1.066;2024-03-02T12:24:27;8.50;99.90
35559;DHT22;21661;50.794;-1.066;2024-03-02T12:26:53;8.70;99.90
35559;DHT22;21661;50.794;-1.066;2024-03-02T12:29:20;8.80;99.90
35559;DHT22;21661;50.794;-1.066;2024-03-02T12:31:48;8.90;99.90
35559;DHT22;21661;50.794;-1.066;2024-03-02T12:34:15;8.90;99.90
35559;DHT22;21661;50.794;-1.066;2024-03-02T12:36:41;8.90;99.90
35559;DHT22;21661;50.794;-1.066;2024-03-02T12:39:08;8.80;99.90
35559;DHT22;21661;50.794;-1.066;2024-03-02T12:41:37;8.80;99.90
35559;DHT22;21661;50.794;-1.066;2024-03-02T12:44:04;8.80;99.90
35559;DHT22;21661;50.794;-1.066;2024-03-02T12:46:30;8.80;99.90
35559;DHT22;21661;50.794;-1.066;2024-03-02T12:48:56;8.90;99.90
35559;DHT22;21661;50.794;-1.066;2024-03-02T12:51:22;8.90;99.90
35559;DHT22;21661;50.794;-1.066;2024-03-02T12:53:57;8.80;99.90
35559;DHT22;21661;50.794;-1.066;2024-03-02T12:56:24;8.90;99.90
35559;DHT22;21661;50.794;-1.066;2024-03-02T12:58:54;8.90;99.90
35559;DHT22;21661;50.794;-1.066;2024-03-02T13:01:19;8.80;99.90
35559;DHT22;21661;50.794;-1.066;2024-03-02T13:03:47;8.70;99.90
35559;DHT22;21661;50.794;-1.066;2024-03-02T13:06:13;8.70;99.90
35559;DHT22;21661;50.794;-1.066;2024-03-02T13:08:39;8.70;99.90
35559;DHT22;21661;50.794;-1.066;2024-03-02T13:11:04;8.70;99.90
35559;DHT22;21661;50.794;-1.066;2024-03-02T13:13:32;8.70;99.90
35559;DHT22;21661;50.794;-1.066;2024-03-02T13:15:58;8.70;99.90
35559;DHT22;21661;50.794;-1.066;2024-03-02T13:18:24;8.70;99.90
35559;DHT22;21661;50.794;-1.066;2024-03-02T13:20:49;8.80;99.90
35559;DHT22;21661;50.794;-1.066;2024-03-02T13:23:15;8.90;99.90
35559;DHT22;21661;50.794;-1.066;2024-03-02T13:25:41;8.90;99.90
35559;DHT22;21661;50.794;-1.066;2024-03-02T13:28:06;8.90;99.90
35559;DHT22;21661;50.794;-1.066;2024-03-02T13:30:32;9.00;99.90
35559;DHT22;21661;50.794;-1.066;2024-03-02T13:32:58;9.10;99.90
35559;DHT22;21661;50.794;-1.066;2024-03-02T13:35:24;9.10;99.90
35559;DHT22;21661;50.794;-1.066;2024-03-02T13:37:50;9.10;99.90
35559;DHT22;21661;50.794;-1.066;2024-03-02T13:40:16;9.10;99.90
35559;DHT22;21661;50.794;-1.066;2024-03-02T13:42:46;9.20;99.90
35559;DHT22;21661;50.794;-1.066;2024-03-02T13:45:15;9.30;99.90
35559;DHT22;21661;50.794;-1.066;2024-03-02T13:47:41;9.40;99.90
35559;DHT22;21661;50.794;-1.066;2024-03-02T13:50:07;9.30;99.90
35559;DHT22;21661;50.794;-1.066;2024-03-02T13:52:33;9.30;99.90
35559;DHT22;21661;50.794;-1.066;2024-03-02T13:54:59;9.40;99.90
35559;DHT22;21661;50.794;-1.066;2024-03-02T13:57:24;9.40;99.90
35559;DHT22;21661;50.794;-1.066;2024-03-02T13:59:53;9.50;99.90
35559;DHT22;21661;50.794;-1.066;2024-03-02T14:02:20;9.50;99.90
35559;DHT22;21661;50.794;-1.066;2024-03-02T14:04:49;9.60;99.90
35559;DHT22;21661;50.794;-1.066;2024-03-02T14:07:16;9.50;99.90
35559;DHT22;21661;50.794;-1.066;2024-03-02T14:09:42;9.40;99.90
35559;DHT22;21661;50.794;-1.066;2024-03-02T14:12:07;9.30;99.90
35559;DHT22;21661;50.794;-1.066;2024-03-02T14:14:34;9.20;99.90
35559;DHT22;21661;50.794;-1.066;2024-03-02T14:17:00;9.30;99.90
35559;DHT22;21661;50.794;-1.066;2024-03-02T14:19:29;9.30;99.90
35559;DHT22;21661;50.794;-1.066;2024-03-02T14:21:54;9.30;99.90
35559;DHT22;21661;50.794;-1.066;2024-03-02T14:24:20;9.30;99.90
35559;DHT22;21661;50.794;-1.066;2024-03-02T14:26:49;9.30;99.90
35559;DHT22;21661;50.794;-1.066;2024-03-02T14:29:15;9.30;99.90
35559;DHT22;21661;50.794;-1.066;2024-03-02T14:31:40;9.30;99.90
35559;DHT22;21661;50.794;-1.066;2024-03-02T14:34:06;9.30;99.90
35559;DHT22;21661;50.794;-1.066;2024-03-02T14:36:31;9.20;99.90
35559;DHT22;21661;50.794;-1.066;2024-03-02T14:38:57;9.20;99.90
35559;DHT22;21661;50.794;-1.066;2024-03-02T14:41:23;9.20;99.90
35559;DHT22;21661;50.794;-1.066;2024-03-02T14:43:50;9.20;99.90
35559;DHT22;21661;50.794;-1.066;2024-03-02T14:46:16;9.20;99.90
35559;DHT22;21661;50.794;-1.066;2024-03-02T14:48:43;9.20;99.90
35559;DHT22;21661;50.794;-1.066;2024-03-02T14:51:09;9.30;99.90
35559;DHT22;21661;50.794;-1.066;2024-03-02T14:53:36;9.20;99.90
35559;DHT22;21661;50.794;-1.066;2024-03-02T14:56:04;9.20;99.90
35559;DHT22;21661;50.794;-1.066;2024-03-02T14:58:29;9.20;99.90
35559;DHT22;21661;50.794;-1.066;2024-03-02T15:00:55;9.10;99.90
35559;DHT22;21661;50.794;-1.066;2024-03-02T15:03:21;9.10;99.90
35559;DHT22;21661;50.794;-1.066;2024-03-02T15:05:47;9.10;99.90
35559;DHT22;21661;50.794;-1.066;2024-03-02T15:08:17;9.00;99.90
35559;DHT22;21661;50.794;-1.066;2024-03-02T15:10:42;9.00;99.90
35559;DHT22;21661;50.794;-1.066;2024-03-02T15:13:08;8.90;99.90
35559;DHT22;21661;50.794;-1.066;2024-03-02T15:15:34;8.80;99.90
35559;DHT22;21661;50.794;-1.066;2024-03-02T15:17:59;8.80;99.90
35559;DHT22;21661;50.794;-1.066;2024-03-02T15:20:25;8.80;99.90
35559;DHT22;21661;50.794;-1.066;2024-03-02T15:22:51;8.80;99.90
35559;DHT22;21661;50.794;-1.066;2024-03-02T15:25:16;8.90;99.90
35559;DHT22;21661;50.794;-1.066;2024-03-02T15:27:42;8.90;99.90
35559;DHT22;21661;50.794;-1.066;2024-03-02T15:30:08;8.90;99.90
35559;DHT22;21661;50.794;-1.066;2024-03-02T15:32:34;8.80;99.90
35559;DHT22;21661;50.794;-1.066;2024-03-02T15:35:00;8.90;99.90
35559;DHT22;21661;50.794;-1.066;2024-03-02T15:37:26;8.90;99.90
35559;DHT22;21661;50.794;-1.066;2024-03-02T15:39:51;9.00;99.90
35559;DHT22;21661;50.794;-1.066;2024-03-02T15:42:17;9.00;99.90
35559;DHT22;21661;50.794;-1.066;2024-03-02T15:44:43;8.90;99.90
35559;DHT22;21661;50.794;-1.066;2024-03-02T15:47:09;8.80;99.90